This is the latest recevied weather packets stored in our database for station/object K7EK. If no packets are shown the sender has not sent any weather packets the latest 10 day(s).
| Time | Temp. | Humidity | Pressure | Rain* | Wind** | Luminosity | Snow |
|---|---|---|---|---|---|---|---|
| 1778085952 | 15° C | 63% | 1013.1 hPa | 0 mm | - | - | - |
| 1778084154 | 14.44° C | 69% | 1013.4 hPa | 0 mm | - | - | - |
| 1778079652 | 12.22° C | 79% | 1012.5 hPa | 0 mm | - | - | - |
| 1778078759 | 11.67° C | 79% | 1012.4 hPa | 0 mm | - | - | - |
| 1778075145 | 8.89° C | 89% | 1012.4 hPa | 0 mm | - | - | - |
| 1778069747 | 7.78° C | 92% | 1011.5 hPa | 0 mm | - | - | - |
| 1778066152 | 8.33° C | 94% | 1010.4 hPa | 0 mm | - | - | - |
| 1778058951 | 9.44° C | 96% | 1008.7 hPa | 3.05 mm | - | - | - |
| 1778055358 | 10° C | 96% | 1008.3 hPa | 0.76 mm | - | - | - |
| 1778049058 | 13.89° C | 95% | 1006.2 hPa | 3.3 mm | - | - | - |
| 1778047250 | 14.44° C | 97% | 1005.6 hPa | 4.32 mm | - | - | - |
| 1778039149 | 14.44° C | 96% | 1005.9 hPa | 0.51 mm | - | - | - |
| 1778033755 | 15° C | 93% | 1006.9 hPa | 0.51 mm | - | - | - |
| 1778032850 | 15.56° C | 92% | 1007.2 hPa | 0.25 mm | - | - | - |
| 1778031047 | 16.11° C | 90% | 1007.2 hPa | 0.51 mm | - | - | - |
| 1778025647 | 17.22° C | 85% | 1006.5 hPa | 0.25 mm | - | - | - |
| 1778021147 | 19.44° C | 71% | 1006.5 hPa | 0 mm | - | - | - |
| 1778016656 | 22.22° C | 57% | 1006.6 hPa | 0 mm | - | - | - |
| 1778013964 | 20.56° C | 66% | 1007.2 hPa | 0 mm | - | - | - |
| 1778009452 | 20.56° C | 70% | 1008.3 hPa | 0 mm | - | - | - |
| 1778006754 | 20° C | 73% | 1008.8 hPa | 0 mm | - | - | - |
| 1778000447 | 20.56° C | 70% | 1009.3 hPa | 0 mm | - | - | - |
| 1777993253 | 18.89° C | 70% | 1010.1 hPa | 0 mm | - | - | - |
| 1777989653 | 17.78° C | 72% | 1009.6 hPa | 0 mm | - | - | - |
| 1777977964 | 15.56° C | 73% | 1009.4 hPa | 0 mm | - | - | - |
* Rain latest hour (hover to see other rain measurements)
** Current wind speed in m/s (hover to see current wind gust speed)